sensor_id;sensor_type;location;lat;lon;timestamp;pressure;altitude;pressure_sealevel;temperature;humidity
17054;BME280;8643;48.824;11.422;2023-07-29T00:01:29;96627.44;;;16.56;100.00
17054;BME280;8643;48.824;11.422;2023-07-29T00:03:57;96624.09;;;16.74;100.00
17054;BME280;8643;48.824;11.422;2023-07-29T00:06:26;96626.41;;;16.72;100.00
17054;BME280;8643;48.824;11.422;2023-07-29T00:08:55;96626.06;;;16.77;100.00
17054;BME280;8643;48.824;11.422;2023-07-29T00:11:24;96626.03;;;16.73;100.00
17054;BME280;8643;48.824;11.422;2023-07-29T00:13:53;96624.03;;;16.70;100.00
17054;BME280;8643;48.824;11.422;2023-07-29T00:16:22;96626.03;;;16.73;100.00
17054;BME280;8643;48.824;11.422;2023-07-29T00:18:52;96630.00;;;16.72;100.00
17054;BME280;8643;48.824;11.422;2023-07-29T00:21:20;96627.53;;;16.67;100.00
17054;BME280;8643;48.824;11.422;2023-07-29T00:23:49;96631.78;;;16.57;100.00
17054;BME280;8643;48.824;11.422;2023-07-29T00:26:17;96623.13;;;16.59;100.00
17054;BME280;8643;48.824;11.422;2023-07-29T00:28:46;96625.38;;;16.46;100.00
17054;BME280;8643;48.824;11.422;2023-07-29T00:31:14;96618.59;;;16.40;100.00
17054;BME280;8643;48.824;11.422;2023-07-29T00:33:43;96623.59;;;16.30;100.00
17054;BME280;8643;48.824;11.422;2023-07-29T00:36:13;96621.53;;;16.20;100.00
17054;BME280;8643;48.824;11.422;2023-07-29T00:38:42;96618.84;;;16.27;100.00
17054;BME280;8643;48.824;11.422;2023-07-29T00:41:12;96622.78;;;16.26;100.00
17054;BME280;8643;48.824;11.422;2023-07-29T00:43:42;96621.19;;;16.25;100.00
17054;BME280;8643;48.824;11.422;2023-07-29T00:46:11;96613.13;;;16.13;100.00
17054;BME280;8643;48.824;11.422;2023-07-29T00:48:41;96612.41;;;16.20;100.00
17054;BME280;8643;48.824;11.422;2023-07-29T00:51:13;96608.47;;;16.17;100.00
17054;BME280;8643;48.824;11.422;2023-07-29T00:53:42;96613.69;;;16.26;100.00
17054;BME280;8643;48.824;11.422;2023-07-29T00:56:10;96617.53;;;16.18;100.00
17054;BME280;8643;48.824;11.422;2023-07-29T00:58:39;96616.81;;;16.24;100.00
17054;BME280;8643;48.824;11.422;2023-07-29T01:01:08;96605.66;;;16.13;100.00
17054;BME280;8643;48.824;11.422;2023-07-29T01:03:37;96601.59;;;16.04;100.00
17054;BME280;8643;48.824;11.422;2023-07-29T01:06:23;96598.50;;;15.79;100.00
17054;BME280;8643;48.824;11.422;2023-07-29T01:09:02;96595.44;;;15.57;100.00
17054;BME280;8643;48.824;11.422;2023-07-29T01:11:41;96594.06;;;15.44;100.00
17054;BME280;8643;48.824;11.422;2023-07-29T01:14:24;96591.88;;;15.30;100.00
17054;BME280;8643;48.824;11.422;2023-07-29T01:17:03;96585.91;;;15.24;100.00
17054;BME280;8643;48.824;11.422;2023-07-29T01:19:53;96596.06;;;15.20;100.00
17054;BME280;8643;48.824;11.422;2023-07-29T01:22:25;96599.72;;;15.28;100.00
17054;BME280;8643;48.824;11.422;2023-07-29T01:24:56;96597.66;;;15.48;100.00
17054;BME280;8643;48.824;11.422;2023-07-29T01:27:24;96597.81;;;15.58;100.00
17054;BME280;8643;48.824;11.422;2023-07-29T01:29:56;96599.84;;;15.62;100.00
17054;BME280;8643;48.824;11.422;2023-07-29T01:32:36;96591.81;;;15.53;100.00
17054;BME280;8643;48.824;11.422;2023-07-29T01:35:15;96595.91;;;15.36;100.00
17054;BME280;8643;48.824;11.422;2023-07-29T01:37:48;96586.13;;;15.15;100.00
17054;BME280;8643;48.824;11.422;2023-07-29T01:40:19;96592.50;;;14.93;100.00
17054;BME280;8643;48.824;11.422;2023-07-29T01:42:50;96586.00;;;14.81;100.00
17054;BME280;8643;48.824;11.422;2023-07-29T01:45:21;96592.13;;;14.71;100.00
17054;BME280;8643;48.824;11.422;2023-07-29T01:47:51;96595.53;;;14.64;100.00
17054;BME280;8643;48.824;11.422;2023-07-29T01:50:21;96587.50;;;14.56;100.00
17054;BME280;8643;48.824;11.422;2023-07-29T01:52:50;96589.75;;;14.50;100.00
17054;BME280;8643;48.824;11.422;2023-07-29T01:55:20;96591.72;;;14.49;100.00
17054;BME280;8643;48.824;11.422;2023-07-29T01:57:49;96584.38;;;14.57;100.00
17054;BME280;8643;48.824;11.422;2023-07-29T02:00:21;96588.06;;;14.65;100.00
17054;BME280;8643;48.824;11.422;2023-07-29T02:02:49;96587.06;;;14.73;100.00
17054;BME280;8643;48.824;11.422;2023-07-29T02:05:18;96582.19;;;14.66;100.00
17054;BME280;8643;48.824;11.422;2023-07-29T02:07:46;96580.63;;;14.65;100.00
17054;BME280;8643;48.824;11.422;2023-07-29T02:10:15;96580.66;;;14.69;100.00
17054;BME280;8643;48.824;11.422;2023-07-29T02:12:44;96577.19;;;14.72;100.00
17054;BME280;8643;48.824;11.422;2023-07-29T02:15:13;96575.00;;;14.81;100.00
17054;BME280;8643;48.824;11.422;2023-07-29T02:17:42;96575.09;;;14.89;100.00
17054;BME280;8643;48.824;11.422;2023-07-29T02:20:12;96564.47;;;14.91;100.00
17054;BME280;8643;48.824;11.422;2023-07-29T02:22:41;96566.50;;;14.94;100.00
17054;BME280;8643;48.824;11.422;2023-07-29T02:25:09;96557.88;;;14.95;100.00
17054;BME280;8643;48.824;11.422;2023-07-29T02:27:38;96553.22;;;14.99;100.00
17054;BME280;8643;48.824;11.422;2023-07-29T02:30:09;96554.56;;;15.09;100.00
17054;BME280;8643;48.824;11.422;2023-07-29T02:32:39;96551.03;;;15.12;100.00
17054;BME280;8643;48.824;11.422;2023-07-29T02:35:08;96551.94;;;15.20;100.00
17054;BME280;8643;48.824;11.422;2023-07-29T02:37:37;96544.03;;;15.18;100.00
17054;BME280;8643;48.824;11.422;2023-07-29T02:40:07;96546.91;;;15.26;100.00
17054;BME280;8643;48.824;11.422;2023-07-29T02:42:36;96548.81;;;15.21;100.00
17054;BME280;8643;48.824;11.422;2023-07-29T02:45:08;96557.31;;;15.09;100.00
17054;BME280;8643;48.824;11.422;2023-07-29T02:47:38;96550.16;;;15.05;100.00
17054;BME280;8643;48.824;11.422;2023-07-29T02:50:08;96556.88;;;15.07;100.00
17054;BME280;8643;48.824;11.422;2023-07-29T02:52:36;96563.19;;;15.08;100.00
17054;BME280;8643;48.824;11.422;2023-07-29T02:55:06;96563.25;;;15.11;100.00
17054;BME280;8643;48.824;11.422;2023-07-29T02:57:35;96566.00;;;15.11;100.00
17054;BME280;8643;48.824;11.422;2023-07-29T03:00:05;96569.19;;;15.13;100.00
17054;BME280;8643;48.824;11.422;2023-07-29T03:02:36;96576.81;;;15.24;100.00
17054;BME280;8643;48.824;11.422;2023-07-29T03:05:06;96562.50;;;15.14;100.00
17054;BME280;8643;48.824;11.422;2023-07-29T03:07:34;96570.72;;;15.11;100.00
17054;BME280;8643;48.824;11.422;2023-07-29T03:10:05;96565.25;;;15.14;100.00
17054;BME280;8643;48.824;11.422;2023-07-29T03:12:34;96565.34;;;15.21;100.00
17054;BME280;8643;48.824;11.422;2023-07-29T03:15:04;96562.34;;;15.30;100.00
17054;BME280;8643;48.824;11.422;2023-07-29T03:17:33;96563.69;;;15.40;100.00
17054;BME280;8643;48.824;11.422;2023-07-29T03:20:03;96565.56;;;15.36;100.00
17054;BME280;8643;48.824;11.422;2023-07-29T03:22:32;96565.19;;;15.37;100.00
17054;BME280;8643;48.824;11.422;2023-07-29T03:25:00;96556.50;;;15.35;100.00
17054;BME280;8643;48.824;11.422;2023-07-29T03:27:29;96562.03;;;15.35;100.00
17054;BME280;8643;48.824;11.422;2023-07-29T03:29:57;96558.44;;;15.35;100.00
17054;BME280;8643;48.824;11.422;2023-07-29T03:32:26;96563.59;;;15.36;100.00
17054;BME280;8643;48.824;11.422;2023-07-29T03:34:55;96560.00;;;15.32;100.00
17054;BME280;8643;48.824;11.422;2023-07-29T03:37:25;96563.97;;;15.35;100.00
17054;BME280;8643;48.824;11.422;2023-07-29T03:39:53;96551.31;;;15.30;100.00
17054;BME280;8643;48.824;11.422;2023-07-29T03:42:22;96548.22;;;15.35;100.00
17054;BME280;8643;48.824;11.422;2023-07-29T03:44:50;96554.53;;;15.36;100.00
17054;BME280;8643;48.824;11.422;2023-07-29T03:47:19;96552.94;;;15.35;100.00
17054;BME280;8643;48.824;11.422;2023-07-29T03:49:48;96561.28;;;15.38;100.00
17054;BME280;8643;48.824;11.422;2023-07-29T03:52:20;96560.47;;;15.38;100.00
17054;BME280;8643;48.824;11.422;2023-07-29T03:54:50;96554.13;;;15.34;100.00
17054;BME280;8643;48.824;11.422;2023-07-29T03:57:19;96562.41;;;15.34;100.00
17054;BME280;8643;48.824;11.422;2023-07-29T03:59:47;96559.19;;;15.32;100.00
17054;BME280;8643;48.824;11.422;2023-07-29T04:02:16;96550.50;;;15.30;100.00
17054;BME280;8643;48.824;11.422;2023-07-29T04:04:45;96541.53;;;15.36;100.00
17054;BME280;8643;48.824;11.422;2023-07-29T04:07:15;96550.75;;;15.48;100.00
17054;BME280;8643;48.824;11.422;2023-07-29T04:09:44;96563.22;;;15.65;100.00
17054;BME280;8643;48.824;11.422;2023-07-29T04:12:14;96550.66;;;15.71;100.00
17054;BME280;8643;48.824;11.422;2023-07-29T04:14:43;96550.28;;;15.72;100.00
17054;BME280;8643;48.824;11.422;2023-07-29T04:17:11;96546.13;;;15.55;100.00
17054;BME280;8643;48.824;11.422;2023-07-29T04:19:39;96547.00;;;15.60;100.00
17054;BME280;8643;48.824;11.422;2023-07-29T04:22:08;96549.31;;;15.57;100.00
17054;BME280;8643;48.824;11.422;2023-07-29T04:24:37;96533.81;;;15.49;100.00
17054;BME280;8643;48.824;11.422;2023-07-29T04:27:06;96547.56;;;15.46;100.00
17054;BME280;8643;48.824;11.422;2023-07-29T04:29:36;96532.66;;;15.50;100.00
17054;BME280;8643;48.824;11.422;2023-07-29T04:32:06;96535.84;;;15.52;100.00
17054;BME280;8643;48.824;11.422;2023-07-29T04:34:34;96538.22;;;15.54;100.00
17054;BME280;8643;48.824;11.422;2023-07-29T04:37:03;96531.06;;;15.49;100.00
17054;BME280;8643;48.824;11.422;2023-07-29T04:39:31;96525.91;;;15.48;100.00
17054;BME280;8643;48.824;11.422;2023-07-29T04:42:00;96540.47;;;15.45;100.00
17054;BME280;8643;48.824;11.422;2023-07-29T04:44:29;96533.78;;;15.46;100.00
17054;BME280;8643;48.824;11.422;2023-07-29T04:46:59;96537.25;;;15.39;100.00
17054;BME280;8643;48.824;11.422;2023-07-29T04:49:27;96521.16;;;15.45;100.00
17054;BME280;8643;48.824;11.422;2023-07-29T04:51:56;96523.03;;;15.37;100.00
17054;BME280;8643;48.824;11.422;2023-07-29T04:54:25;96501.84;;;15.45;100.00
17054;BME280;8643;48.824;11.422;2023-07-29T04:56:54;96507.91;;;15.57;100.00
17054;BME280;8643;48.824;11.422;2023-07-29T04:59:22;96513.44;;;15.57;100.00
17054;BME280;8643;48.824;11.422;2023-07-29T05:01:51;96517.09;;;15.65;100.00
17054;BME280;8643;48.824;11.422;2023-07-29T05:04:23;96519.53;;;15.74;100.00
17054;BME280;8643;48.824;11.422;2023-07-29T05:06:53;96518.88;;;15.81;100.00
17054;BME280;8643;48.824;11.422;2023-07-29T05:09:21;96524.16;;;15.93;100.00
17054;BME280;8643;48.824;11.422;2023-07-29T05:11:52;96522.69;;;16.03;100.00
17054;BME280;8643;48.824;11.422;2023-07-29T05:14:20;96530.28;;;16.13;100.00
17054;BME280;8643;48.824;11.422;2023-07-29T05:16:49;96522.16;;;16.27;100.00
17054;BME280;8643;48.824;11.422;2023-07-29T05:19:18;96514.44;;;16.47;100.00
17054;BME280;8643;48.824;11.422;2023-07-29T05:21:48;96514.13;;;16.56;100.00
17054;BME280;8643;48.824;11.422;2023-07-29T05:24:18;96512.91;;;16.54;100.00
17054;BME280;8643;48.824;11.422;2023-07-29T05:26:46;96510.63;;;16.63;100.00
17054;BME280;8643;48.824;11.422;2023-07-29T05:29:15;96513.91;;;16.76;100.00
17054;BME280;8643;48.824;11.422;2023-07-29T05:31:43;96513.13;;;16.79;100.00
17054;BME280;8643;48.824;11.422;2023-07-29T05:34:12;96512.75;;;16.80;100.00
17054;BME280;8643;48.824;11.422;2023-07-29T05:36:41;96527.34;;;16.77;100.00
17054;BME280;8643;48.824;11.422;2023-07-29T05:39:11;96525.38;;;16.81;100.00
17054;BME280;8643;48.824;11.422;2023-07-29T05:41:40;96527.38;;;16.84;100.00
17054;BME280;8643;48.824;11.422;2023-07-29T05:44:08;96534.22;;;16.94;100.00
17054;BME280;8643;48.824;11.422;2023-07-29T05:46:37;96533.72;;;16.85;100.00
17054;BME280;8643;48.824;11.422;2023-07-29T05:49:07;96521.06;;;16.84;100.00
17054;BME280;8643;48.824;11.422;2023-07-29T05:51:36;96519.59;;;16.94;100.00
17054;BME280;8643;48.824;11.422;2023-07-29T05:54:04;96520.00;;;16.96;100.00
17054;BME280;8643;48.824;11.422;2023-07-29T05:56:35;96527.19;;;17.08;100.00
17054;BME280;8643;48.824;11.422;2023-07-29T05:59:03;96530.47;;;17.24;100.00
17054;BME280;8643;48.824;11.422;2023-07-29T06:01:32;96531.31;;;17.35;100.00
17054;BME280;8643;48.824;11.422;2023-07-29T06:04:02;96521.72;;;17.15;100.00
17054;BME280;8643;48.824;11.422;2023-07-29T06:06:30;96521.72;;;17.15;100.00
17054;BME280;8643;48.824;11.422;2023-07-29T06:08:59;96533.97;;;17.17;100.00
17054;BME280;8643;48.824;11.422;2023-07-29T06:11:28;96538.31;;;17.15;100.00
17054;BME280;8643;48.824;11.422;2023-07-29T06:13:58;96535.56;;;17.15;100.00
17054;BME280;8643;48.824;11.422;2023-07-29T06:16:26;96537.84;;;17.06;100.00
17054;BME280;8643;48.824;11.422;2023-07-29T06:18:55;96553.59;;;16.98;100.00
17054;BME280;8643;48.824;11.422;2023-07-29T06:21:23;96555.16;;;16.92;100.00
17054;BME280;8643;48.824;11.422;2023-07-29T06:23:52;96558.69;;;16.92;100.00
17054;BME280;8643;48.824;11.422;2023-07-29T06:26:21;96559.78;;;16.84;100.00
17054;BME280;8643;48.824;11.422;2023-07-29T06:28:49;96562.63;;;16.91;100.00
17054;BME280;8643;48.824;11.422;2023-07-29T06:31:19;96563.44;;;16.92;100.00
17054;BME280;8643;48.824;11.422;2023-07-29T06:33:48;96547.88;;;16.80;100.00
17054;BME280;8643;48.824;11.422;2023-07-29T06:36:16;96556.91;;;16.73;100.00
17054;BME280;8643;48.824;11.422;2023-07-29T06:38:45;96541.03;;;16.63;100.00
17054;BME280;8643;48.824;11.422;2023-07-29T06:41:14;96528.31;;;16.51;100.00
17054;BME280;8643;48.824;11.422;2023-07-29T06:43:45;96516.06;;;16.52;100.00
17054;BME280;8643;48.824;11.422;2023-07-29T06:46:14;96524.13;;;16.72;100.00
17054;BME280;8643;48.824;11.422;2023-07-29T06:48:45;96522.97;;;16.73;100.00
17054;BME280;8643;48.824;11.422;2023-07-29T06:51:14;96527.50;;;16.92;100.00
17054;BME280;8643;48.824;11.422;2023-07-29T06:53:43;96529.56;;;17.06;100.00
17054;BME280;8643;48.824;11.422;2023-07-29T06:56:11;96537.19;;;17.23;100.00
17054;BME280;8643;48.824;11.422;2023-07-29T06:58:39;96535.19;;;17.20;100.00
17054;BME280;8643;48.824;11.422;2023-07-29T07:01:08;96529.13;;;17.00;100.00
17054;BME280;8643;48.824;11.422;2023-07-29T07:03:37;96535.84;;;17.02;100.00
17054;BME280;8643;48.824;11.422;2023-07-29T07:06:07;96535.00;;;16.95;100.00
17054;BME280;8643;48.824;11.422;2023-07-29T07:08:36;96523.59;;;17.00;100.00
17054;BME280;8643;48.824;11.422;2023-07-29T07:11:05;96530.50;;;17.28;100.00
17054;BME280;8643;48.824;11.422;2023-07-29T07:13:33;96541.22;;;17.36;100.00
17054;BME280;8643;48.824;11.422;2023-07-29T07:16:02;96540.38;;;17.29;100.00
17054;BME280;8643;48.824;11.422;2023-07-29T07:18:31;96558.16;;;17.28;100.00
17054;BME280;8643;48.824;11.422;2023-07-29T07:21:00;96542.66;;;17.16;100.00
17054;BME280;8643;48.824;11.422;2023-07-29T07:23:30;96564.34;;;17.07;100.00
17054;BME280;8643;48.824;11.422;2023-07-29T07:25:58;96566.16;;;16.88;100.00
17054;BME280;8643;48.824;11.422;2023-07-29T07:28:27;96589.78;;;16.82;100.00
17054;BME280;8643;48.824;11.422;2023-07-29T07:30:55;96575.53;;;16.80;100.00
17054;BME280;8643;48.824;11.422;2023-07-29T07:33:24;96562.97;;;16.86;100.00
17054;BME280;8643;48.824;11.422;2023-07-29T07:35:53;96577.16;;;16.84;100.00
17054;BME280;8643;48.824;11.422;2023-07-29T07:38:22;96607.94;;;16.79;100.00
17054;BME280;8643;48.824;11.422;2023-07-29T07:40:55;96638.91;;;16.92;100.00
17054;BME280;8643;48.824;11.422;2023-07-29T07:43:24;96661.41;;;16.91;100.00
17054;BME280;8643;48.824;11.422;2023-07-29T07:45:58;96662.84;;;16.81;100.00
17054;BME280;8643;48.824;11.422;2023-07-29T07:48:27;96621.88;;;16.53;100.00
17054;BME280;8643;48.824;11.422;2023-07-29T07:50:56;96612.72;;;16.45;100.00
17054;BME280;8643;48.824;11.422;2023-07-29T07:53:25;96615.69;;;16.29;100.00
17054;BME280;8643;48.824;11.422;2023-07-29T07:55:55;96587.56;;;16.20;100.00
17054;BME280;8643;48.824;11.422;2023-07-29T07:58:24;96568.19;;;16.16;100.00
17054;BME280;8643;48.824;11.422;2023-07-29T08:00:52;96553.97;;;16.14;100.00
17054;BME280;8643;48.824;11.422;2023-07-29T08:03:28;96554.03;;;16.21;100.00
17054;BME280;8643;48.824;11.422;2023-07-29T08:05:57;96532.00;;;16.25;100.00
17054;BME280;8643;48.824;11.422;2023-07-29T08:08:26;96524.63;;;16.36;100.00
17054;BME280;8643;48.824;11.422;2023-07-29T08:10:57;96540.94;;;16.52;100.00
17054;BME280;8643;48.824;11.422;2023-07-29T08:13:25;96548.22;;;16.71;100.00
17054;BME280;8643;48.824;11.422;2023-07-29T08:15:54;96550.81;;;16.94;100.00
17054;BME280;8643;48.824;11.422;2023-07-29T08:18:23;96542.19;;;17.03;100.00
17054;BME280;8643;48.824;11.422;2023-07-29T08:20:52;96531.91;;;17.00;100.00
17054;BME280;8643;48.824;11.422;2023-07-29T08:23:22;96536.72;;;17.14;100.00
17054;BME280;8643;48.824;11.422;2023-07-29T08:25:53;96529.00;;;17.45;100.00
17054;BME280;8643;48.824;11.422;2023-07-29T08:28:26;96528.78;;;17.82;100.00
17054;BME280;8643;48.824;11.422;2023-07-29T08:30:54;96517.72;;;17.86;100.00
17054;BME280;8643;48.824;11.422;2023-07-29T08:33:23;96530.09;;;18.03;100.00
17054;BME280;8643;48.824;11.422;2023-07-29T08:35:52;96526.56;;;18.09;100.00
17054;BME280;8643;48.824;11.422;2023-07-29T08:38:21;96533.31;;;18.26;100.00
17054;BME280;8643;48.824;11.422;2023-07-29T08:40:59;96530.16;;;18.28;100.00
17054;BME280;8643;48.824;11.422;2023-07-29T08:43:38;96535.75;;;18.64;100.00
17054;BME280;8643;48.824;11.422;2023-07-29T08:46:07;96535.00;;;18.74;100.00
17054;BME280;8643;48.824;11.422;2023-07-29T08:48:40;96553.19;;;19.29;100.00
17054;BME280;8643;48.824;11.422;2023-07-29T08:51:11;96548.06;;;19.35;100.00
17054;BME280;8643;48.824;11.422;2023-07-29T08:53:39;96546.03;;;19.60;100.00
17054;BME280;8643;48.824;11.422;2023-07-29T08:56:08;96551.44;;;20.04;100.00
17054;BME280;8643;48.824;11.422;2023-07-29T08:58:39;96544.47;;;19.52;100.00
17054;BME280;8643;48.824;11.422;2023-07-29T09:01:08;96548.84;;;19.46;100.00
17054;BME280;8643;48.824;11.422;2023-07-29T09:03:38;96552.41;;;19.29;100.00
17054;BME280;8643;48.824;11.422;2023-07-29T09:06:07;96549.50;;;19.93;100.00
17054;BME280;8643;48.824;11.422;2023-07-29T09:08:36;96533.31;;;21.08;100.00
17054;BME280;8643;48.824;11.422;2023-07-29T09:11:05;96537.91;;;22.36;100.00
17054;BME280;8643;48.824;11.422;2023-07-29T09:13:35;96529.59;;;22.86;100.00
17054;BME280;8643;48.824;11.422;2023-07-29T09:16:05;96542.88;;;23.73;100.00
17054;BME280;8643;48.824;11.422;2023-07-29T09:18:34;96546.53;;;23.47;100.00
17054;BME280;8643;48.824;11.422;2023-07-29T09:21:03;96542.38;;;22.84;100.00
17054;BME280;8643;48.824;11.422;2023-07-29T09:23:39;96573.41;;;21.17;100.00
17054;BME280;8643;48.824;11.422;2023-07-29T09:26:08;96593.94;;;20.01;100.00
17054;BME280;8643;48.824;11.422;2023-07-29T09:28:40;96604.38;;;19.17;100.00
17054;BME280;8643;48.824;11.422;2023-07-29T09:31:20;96605.47;;;18.59;100.00
17054;BME280;8643;48.824;11.422;2023-07-29T09:33:51;96593.06;;;18.17;100.00
17054;BME280;8643;48.824;11.422;2023-07-29T09:36:23;96586.28;;;18.00;100.00
17054;BME280;8643;48.824;11.422;2023-07-29T09:38:55;96572.75;;;17.87;100.00
17054;BME280;8643;48.824;11.422;2023-07-29T09:41:27;96564.06;;;17.89;100.00
17054;BME280;8643;48.824;11.422;2023-07-29T09:44:02;96575.19;;;18.00;100.00
17054;BME280;8643;48.824;11.422;2023-07-29T09:46:35;96570.88;;;18.06;100.00
17054;BME280;8643;48.824;11.422;2023-07-29T09:49:07;96553.88;;;18.22;100.00
17054;BME280;8643;48.824;11.422;2023-07-29T09:51:38;96556.34;;;18.52;100.00
17054;BME280;8643;48.824;11.422;2023-07-29T09:54:08;96561.19;;;19.02;100.00
17054;BME280;8643;48.824;11.422;2023-07-29T09:56:41;96564.22;;;19.72;100.00
17054;BME280;8643;48.824;11.422;2023-07-29T09:59:10;96561.81;;;19.92;100.00
17054;BME280;8643;48.824;11.422;2023-07-29T10:01:41;96564.91;;;20.12;100.00
17054;BME280;8643;48.824;11.422;2023-07-29T10:04:11;96553.16;;;20.57;100.00
17054;BME280;8643;48.824;11.422;2023-07-29T10:06:43;96564.78;;;21.01;100.00
17054;BME280;8643;48.824;11.422;2023-07-29T10:09:13;96545.00;;;20.88;100.00
17054;BME280;8643;48.824;11.422;2023-07-29T10:11:43;96540.81;;;20.58;100.00
17054;BME280;8643;48.824;11.422;2023-07-29T10:14:12;96527.03;;;20.37;100.00
17054;BME280;8643;48.824;11.422;2023-07-29T10:16:44;96539.47;;;20.21;100.00
17054;BME280;8643;48.824;11.422;2023-07-29T10:19:14;96545.06;;;20.10;100.00
17054;BME280;8643;48.824;11.422;2023-07-29T10:21:48;96547.22;;;20.55;100.00
17054;BME280;8643;48.824;11.422;2023-07-29T10:24:19;96540.31;;;20.78;100.00
17054;BME280;8643;48.824;11.422;2023-07-29T10:26:58;96549.47;;;20.78;100.00
17054;BME280;8643;48.824;11.422;2023-07-29T10:29:31;96554.13;;;21.79;100.00
17054;BME280;8643;48.824;11.422;2023-07-29T10:32:03;96553.41;;;22.67;100.00
17054;BME280;8643;48.824;11.422;2023-07-29T10:34:33;96550.75;;;23.35;100.00
17054;BME280;8643;48.824;11.422;2023-07-29T10:37:03;96555.16;;;23.56;100.00
17054;BME280;8643;48.824;11.422;2023-07-29T10:39:38;96546.66;;;22.65;100.00
17054;BME280;8643;48.824;11.422;2023-07-29T10:42:07;96547.00;;;21.74;100.00
17054;BME280;8643;48.824;11.422;2023-07-29T10:44:50;96546.56;;;21.38;100.00
17054;BME280;8643;48.824;11.422;2023-07-29T10:47:22;96545.13;;;21.22;100.00
17054;BME280;8643;48.824;11.422;2023-07-29T10:49:53;96539.84;;;21.35;100.00
17054;BME280;8643;48.824;11.422;2023-07-29T10:52:39;96534.59;;;21.41;100.00
17054;BME280;8643;48.824;11.422;2023-07-29T10:55:30;96528.44;;;21.60;100.00
17054;BME280;8643;48.824;11.422;2023-07-29T10:58:16;96532.72;;;21.72;100.00
17054;BME280;8643;48.824;11.422;2023-07-29T11:00:46;96532.22;;;21.81;100.00
17054;BME280;8643;48.824;11.422;2023-07-29T11:03:16;96527.88;;;21.76;100.00
17054;BME280;8643;48.824;11.422;2023-07-29T11:05:48;96527.50;;;22.09;100.00
17054;BME280;8643;48.824;11.422;2023-07-29T11:08:23;96523.63;;;21.99;100.00
17054;BME280;8643;48.824;11.422;2023-07-29T11:11:06;96520.84;;;21.99;100.00
17054;BME280;8643;48.824;11.422;2023-07-29T11:13:36;96512.34;;;21.79;100.00
17054;BME280;8643;48.824;11.422;2023-07-29T11:16:06;96511.72;;;21.60;100.00
17054;BME280;8643;48.824;11.422;2023-07-29T11:18:36;96514.97;;;21.55;100.00
17054;BME280;8643;48.824;11.422;2023-07-29T11:21:04;96514.59;;;21.53;100.00
17054;BME280;8643;48.824;11.422;2023-07-29T11:23:36;96510.94;;;21.60;100.00
17054;BME280;8643;48.824;11.422;2023-07-29T11:26:05;96510.38;;;21.76;100.00
17054;BME280;8643;48.824;11.422;2023-07-29T11:28:39;96517.28;;;22.29;100.00
17054;BME280;8643;48.824;11.422;2023-07-29T11:31:08;96519.91;;;22.40;100.00
17054;BME280;8643;48.824;11.422;2023-07-29T11:33:39;96515.66;;;22.32;100.00
17054;BME280;8643;48.824;11.422;2023-07-29T11:36:18;96509.91;;;22.70;100.00
17054;BME280;8643;48.824;11.422;2023-07-29T11:38:47;96505.13;;;23.41;100.00
17054;BME280;8643;48.824;11.422;2023-07-29T11:41:20;96492.19;;;24.48;99.85
17054;BME280;8643;48.824;11.422;2023-07-29T11:43:50;96494.84;;;24.72;94.52
17054;BME280;8643;48.824;11.422;2023-07-29T11:46:22;96500.63;;;24.28;93.11
17054;BME280;8643;48.824;11.422;2023-07-29T11:48:54;96493.03;;;24.81;95.30
17054;BME280;8643;48.824;11.422;2023-07-29T11:51:23;96487.31;;;25.34;90.80
17054;BME280;8643;48.824;11.422;2023-07-29T11:53:54;96488.94;;;25.77;90.15
17054;BME280;8643;48.824;11.422;2023-07-29T11:56:23;96493.19;;;25.07;83.55
17054;BME280;8643;48.824;11.422;2023-07-29T11:58:53;96487.50;;;25.56;85.28
17054;BME280;8643;48.824;11.422;2023-07-29T12:01:22;96495.97;;;25.40;81.88
17054;BME280;8643;48.824;11.422;2023-07-29T12:03:52;96499.88;;;25.59;83.39
17054;BME280;8643;48.824;11.422;2023-07-29T12:06:22;96495.31;;;25.49;85.56
17054;BME280;8643;48.824;11.422;2023-07-29T12:08:52;96503.16;;;25.24;87.40
17054;BME280;8643;48.824;11.422;2023-07-29T12:11:21;96497.56;;;25.24;76.76
17054;BME280;8643;48.824;11.422;2023-07-29T12:13:50;96487.28;;;25.80;75.77
17054;BME280;8643;48.824;11.422;2023-07-29T12:16:18;96490.81;;;25.97;74.71
17054;BME280;8643;48.824;11.422;2023-07-29T12:18:46;96491.41;;;26.05;74.73
17054;BME280;8643;48.824;11.422;2023-07-29T12:21:18;96484.88;;;25.03;74.85
17054;BME280;8643;48.824;11.422;2023-07-29T12:23:47;96487.09;;;24.43;78.19
17054;BME280;8643;48.824;11.422;2023-07-29T12:26:18;96498.06;;;23.57;81.74
17054;BME280;8643;48.824;11.422;2023-07-29T12:28:47;96500.59;;;23.28;83.58
17054;BME280;8643;48.824;11.422;2023-07-29T12:31:16;96498.16;;;23.06;81.94
17054;BME280;8643;48.824;11.422;2023-07-29T12:33:44;96484.03;;;22.93;87.42
17054;BME280;8643;48.824;11.422;2023-07-29T12:36:13;96491.31;;;23.11;84.49
17054;BME280;8643;48.824;11.422;2023-07-29T12:38:45;96486.19;;;23.73;85.08
17054;BME280;8643;48.824;11.422;2023-07-29T12:41:14;96481.22;;;23.60;83.39
17054;BME280;8643;48.824;11.422;2023-07-29T12:43:42;96471.56;;;23.65;86.37
17054;BME280;8643;48.824;11.422;2023-07-29T12:46:11;96491.63;;;23.16;88.15
17054;BME280;8643;48.824;11.422;2023-07-29T12:48:39;96497.81;;;22.53;99.94
17054;BME280;8643;48.824;11.422;2023-07-29T12:51:07;96511.97;;;22.08;100.00
17054;BME280;8643;48.824;11.422;2023-07-29T12:53:36;96527.41;;;21.43;100.00
17054;BME280;8643;48.824;11.422;2023-07-29T12:56:06;96536.84;;;20.59;100.00
17054;BME280;8643;48.824;11.422;2023-07-29T12:58:35;96528.06;;;19.94;100.00
17054;BME280;8643;48.824;11.422;2023-07-29T13:01:04;96507.53;;;19.63;100.00
17054;BME280;8643;48.824;11.422;2023-07-29T13:03:34;96508.75;;;19.44;100.00
17054;BME280;8643;48.824;11.422;2023-07-29T13:06:02;96505.22;;;19.43;100.00